Terminal Aerodrome Forecast
Issued by NWS

Home | Current Version | Previous Version | Text Only | Print | Product List | Glossary Off
Versions: 1 2 3 4 5 6 7 8 9 10 11 12 13 14 15 16 17 18 19 20 21 22 23 24 25 26 27 28 29

134
FTUS43 KGRB 182339
TAFRHI
TAF
KRHI 182339Z 1900/1924 28005KT P6SM SCT200
     FM190600 31003KT 6SM BR SCT200
     FM191100 VRB03KT 4SM BR SCT150
     FM191400 VRB03KT P6SM SCT120
     FM192300 13004KT 6SM BR BKN120=

USA.gov is the U.S. government's official web portal to all federal, state and local government web resources and services.